createdAt,value
2022-10-06T00:01:20.873Z,13.80
2022-10-06T00:03:49.083Z,13.80
2022-10-06T00:06:18.092Z,13.80
2022-10-06T00:08:46.423Z,13.80
2022-10-06T00:11:15.416Z,13.80
2022-10-06T00:13:43.680Z,13.80
2022-10-06T00:16:11.987Z,13.80
2022-10-06T00:18:41.449Z,13.80
2022-10-06T00:21:09.635Z,13.70
2022-10-06T00:23:37.847Z,13.70
2022-10-06T00:26:06.266Z,13.70
2022-10-06T00:28:34.961Z,13.70
2022-10-06T00:31:03.489Z,13.70
2022-10-06T00:33:31.609Z,13.70
2022-10-06T00:36:01.140Z,13.70
2022-10-06T00:38:29.784Z,13.60
2022-10-06T00:40:58.181Z,13.70
2022-10-06T00:43:47.394Z,13.60
2022-10-06T00:46:21.564Z,13.70
2022-10-06T00:48:54.014Z,13.70
2022-10-06T00:51:23.905Z,13.60
2022-10-06T00:53:52.030Z,13.70
2022-10-06T00:56:20.815Z,13.70
2022-10-06T00:58:50.542Z,13.80
2022-10-06T01:01:18.738Z,13.80
2022-10-06T01:03:49.108Z,13.90
2022-10-06T01:06:17.236Z,14.00
2022-10-06T01:08:46.814Z,14.10
2022-10-06T01:11:15.200Z,14.20
2022-10-06T01:13:44.364Z,14.30
2022-10-06T01:16:18.549Z,14.40
2022-10-06T01:18:47.563Z,14.50
2022-10-06T01:21:22.277Z,14.50
2022-10-06T01:23:52.036Z,14.60
2022-10-06T01:26:20.241Z,14.70
2022-10-06T01:28:48.628Z,14.70
2022-10-06T01:31:16.828Z,14.80
2022-10-06T01:33:44.954Z,14.80
2022-10-06T01:36:13.125Z,14.90
2022-10-06T01:38:41.281Z,14.90
2022-10-06T01:41:10.701Z,14.90
2022-10-06T01:43:38.878Z,14.90
2022-10-06T01:46:07.296Z,15.00
2022-10-06T01:48:37.046Z,15.00
2022-10-06T01:51:05.717Z,15.00
2022-10-06T01:53:34.601Z,15.10
2022-10-06T01:56:02.715Z,15.10
2022-10-06T01:58:32.712Z,15.10
2022-10-06T02:01:07.132Z,15.10
2022-10-06T02:03:36.239Z,15.10
2022-10-06T02:06:04.538Z,15.10
2022-10-06T02:08:33.086Z,15.00
2022-10-06T02:11:05.800Z,14.90
2022-10-06T02:13:35.453Z,14.90
2022-10-06T02:16:06.628Z,14.80
2022-10-06T02:18:35.006Z,14.80
2022-10-06T02:21:03.205Z,14.70
2022-10-06T02:23:31.397Z,14.60
2022-10-06T02:26:00.963Z,14.60
2022-10-06T02:28:29.828Z,14.50
2022-10-06T02:31:03.456Z,14.60
2022-10-06T02:33:31.744Z,14.50
2022-10-06T02:36:00.114Z,14.50
2022-10-06T02:38:28.985Z,14.50
2022-10-06T02:40:58.110Z,14.50
2022-10-06T02:43:31.778Z,14.40
2022-10-06T02:46:02.130Z,14.40
2022-10-06T02:48:31.052Z,14.40
2022-10-06T02:51:01.198Z,14.40
2022-10-06T02:53:29.600Z,14.40
2022-10-06T02:56:01.266Z,14.40
2022-10-06T02:58:31.082Z,14.30
2022-10-06T03:01:04.268Z,14.30
2022-10-06T03:03:32.655Z,14.30
2022-10-06T03:06:02.565Z,14.30
2022-10-06T03:08:31.097Z,14.30
2022-10-06T03:11:03.318Z,14.20
2022-10-06T03:13:31.761Z,14.20
2022-10-06T03:16:00.029Z,14.30
2022-10-06T03:18:31.436Z,14.30
2022-10-06T03:21:02.291Z,14.30
2022-10-06T03:23:30.571Z,14.30
2022-10-06T03:25:58.866Z,14.30
2022-10-06T03:28:27.651Z,14.30
2022-10-06T03:30:56.314Z,14.30
2022-10-06T03:33:24.696Z,14.40
2022-10-06T03:36:02.143Z,14.40
2022-10-06T03:38:32.674Z,14.40
2022-10-06T03:41:05.756Z,14.50
2022-10-06T03:43:34.059Z,14.50
2022-10-06T03:46:02.482Z,14.60
2022-10-06T03:48:31.253Z,14.60
2022-10-06T03:51:02.212Z,14.70
2022-10-06T03:53:30.644Z,14.80
2022-10-06T03:56:03.411Z,14.80
2022-10-06T03:58:32.491Z,14.80
2022-10-06T04:01:03.038Z,14.80
2022-10-06T04:03:31.581Z,14.90
2022-10-06T04:06:02.528Z,14.90
2022-10-06T04:08:31.251Z,15.00
2022-10-06T04:11:07.241Z,15.10
2022-10-06T04:13:35.499Z,15.10
2022-10-06T04:16:12.298Z,15.10
2022-10-06T04:18:41.499Z,15.10
2022-10-06T04:21:11.178Z,15.20
2022-10-06T04:23:39.363Z,15.20
2022-10-06T04:26:10.442Z,15.20
2022-10-06T04:28:39.231Z,15.20
2022-10-06T04:31:12.783Z,15.20
2022-10-06T04:33:41.241Z,15.20
2022-10-06T04:36:11.943Z,15.20
2022-10-06T04:38:40.047Z,15.30
2022-10-06T04:41:08.612Z,15.30
2022-10-06T04:43:36.758Z,15.40
2022-10-06T04:46:18.383Z,15.50
2022-10-06T04:48:53.708Z,15.60
2022-10-06T04:51:24.101Z,15.70
2022-10-06T04:53:52.413Z,15.80
2022-10-06T04:56:22.148Z,15.80
2022-10-06T04:58:51.681Z,15.80
2022-10-06T05:01:21.687Z,15.90
2022-10-06T05:03:51.558Z,15.90
2022-10-06T05:06:22.161Z,15.80
2022-10-06T05:08:51.045Z,15.80
2022-10-06T05:11:23.669Z,15.80
2022-10-06T05:13:55.882Z,15.80
2022-10-06T05:16:24.957Z,15.80
2022-10-06T05:18:53.157Z,15.70
2022-10-06T05:21:23.802Z,15.70
2022-10-06T05:23:52.000Z,15.70
2022-10-06T05:26:21.870Z,15.60
2022-10-06T05:28:50.210Z,15.60
2022-10-06T05:31:19.856Z,15.60
2022-10-06T05:33:48.083Z,15.50
2022-10-06T05:36:17.743Z,15.50
2022-10-06T05:38:47.657Z,15.50
2022-10-06T05:41:17.615Z,15.50
2022-10-06T05:43:45.846Z,15.50
2022-10-06T05:46:17.448Z,15.50
2022-10-06T05:48:46.856Z,15.50
2022-10-06T05:51:15.122Z,15.50
2022-10-06T05:53:43.216Z,15.50
2022-10-06T05:56:13.953Z,15.40
2022-10-06T05:58:43.598Z,15.40
2022-10-06T06:01:13.750Z,15.40
2022-10-06T06:03:43.026Z,15.30
2022-10-06T06:06:18.898Z,15.30
2022-10-06T06:08:47.034Z,15.30
2022-10-06T06:11:16.878Z,15.20
2022-10-06T06:13:45.016Z,15.10
2022-10-06T06:16:14.864Z,15.10
2022-10-06T06:18:43.596Z,15.00
2022-10-06T06:21:11.982Z,14.90
2022-10-06T06:23:41.668Z,14.90
2022-10-06T06:26:11.472Z,14.80
2022-10-06T06:28:41.542Z,14.80
2022-10-06T06:31:14.165Z,14.80
2022-10-06T06:33:44.378Z,14.80
2022-10-06T06:36:16.460Z,14.70
2022-10-06T06:38:46.935Z,14.70
2022-10-06T06:41:16.598Z,14.70
2022-10-06T06:43:46.258Z,14.80
2022-10-06T06:46:15.704Z,14.80
2022-10-06T06:48:44.053Z,14.80
2022-10-06T06:51:12.537Z,14.80
2022-10-06T06:53:40.899Z,14.80
2022-10-06T06:56:09.756Z,14.80
2022-10-06T06:58:38.101Z,14.80
2022-10-06T07:01:08.878Z,14.80
2022-10-06T07:03:56.479Z,14.80
2022-10-06T07:06:28.536Z,15.00
2022-10-06T07:08:57.605Z,15.10
2022-10-06T07:11:26.919Z,15.20
2022-10-06T07:13:55.780Z,15.20
2022-10-06T07:16:43.195Z,15.30
2022-10-06T07:19:29.237Z,15.30
2022-10-06T07:22:16.313Z,15.40
2022-10-06T07:25:01.962Z,15.40
2022-10-06T07:27:30.214Z,15.40
2022-10-06T07:29:58.561Z,15.40
2022-10-06T07:32:30.855Z,15.30
2022-10-06T07:34:59.355Z,15.30
2022-10-06T07:37:28.762Z,15.30
2022-10-06T07:39:56.819Z,15.30
2022-10-06T07:42:25.405Z,15.40
2022-10-06T07:45:07.395Z,15.40
2022-10-06T07:47:38.241Z,15.40
2022-10-06T07:50:07.665Z,15.50
2022-10-06T07:52:39.281Z,15.60
2022-10-06T07:55:09.123Z,15.60
2022-10-06T07:57:37.264Z,15.70
2022-10-06T08:00:07.217Z,15.80
2022-10-06T08:02:36.827Z,15.80
2022-10-06T08:05:05.521Z,15.80
2022-10-06T08:07:33.660Z,15.90
2022-10-06T08:10:01.825Z,15.90
2022-10-06T08:12:37.651Z,16.00
2022-10-06T08:15:07.709Z,16.10
2022-10-06T08:17:37.341Z,16.10
2022-10-06T08:20:06.867Z,16.20
2022-10-06T08:22:36.165Z,16.30
2022-10-06T08:25:06.629Z,16.20
2022-10-06T08:27:35.636Z,16.20
2022-10-06T08:30:04.211Z,16.20
2022-10-06T08:32:33.040Z,16.20
2022-10-06T08:35:03.439Z,16.20
2022-10-06T08:37:31.589Z,16.30
2022-10-06T08:39:59.669Z,16.40
2022-10-06T08:42:33.570Z,16.30
2022-10-06T08:45:03.778Z,16.40
2022-10-06T08:47:34.963Z,16.40
2022-10-06T08:50:05.311Z,16.50
2022-10-06T08:52:51.171Z,16.70
2022-10-06T08:55:35.354Z,16.70
2022-10-06T08:58:22.903Z,16.80
2022-10-06T09:00:56.709Z,16.90
2022-10-06T09:03:28.741Z,17.00
2022-10-06T09:06:02.117Z,17.00
2022-10-06T09:08:50.864Z,17.10
2022-10-06T09:11:32.356Z,17.10
2022-10-06T09:14:05.177Z,17.00
2022-10-06T09:16:36.904Z,17.00
2022-10-06T09:19:12.420Z,17.00
2022-10-06T09:21:45.655Z,17.00
2022-10-06T09:24:16.793Z,17.00
2022-10-06T09:26:47.112Z,17.10
2022-10-06T09:29:18.223Z,17.20
2022-10-06T09:31:51.178Z,17.20
2022-10-06T09:34:25.848Z,17.00
2022-10-06T09:37:02.038Z,17.10
2022-10-06T09:39:33.440Z,17.10
2022-10-06T09:42:07.889Z,17.20
2022-10-06T09:44:53.542Z,17.20
2022-10-06T09:47:39.314Z,17.10
2022-10-06T09:50:23.103Z,17.00
2022-10-06T09:53:13.904Z,17.00
2022-10-06T09:55:46.117Z,17.00
2022-10-06T09:58:22.052Z,17.00
2022-10-06T10:00:54.183Z,17.00
2022-10-06T10:03:22.601Z,17.10
2022-10-06T10:05:52.042Z,17.20
2022-10-06T10:08:23.824Z,17.40
2022-10-06T10:10:52.652Z,17.60
2022-10-06T10:13:24.167Z,17.70
2022-10-06T10:15:55.934Z,17.90
2022-10-06T10:18:28.210Z,18.00
2022-10-06T10:20:58.641Z,17.90
2022-10-06T10:23:32.062Z,17.90
2022-10-06T10:26:14.669Z,17.90
2022-10-06T10:29:08.684Z,17.90
2022-10-06T10:31:49.022Z,17.90
2022-10-06T10:34:29.985Z,18.00
2022-10-06T10:37:00.547Z,18.00
2022-10-06T10:39:34.400Z,18.00
2022-10-06T10:42:03.856Z,18.00
2022-10-06T10:44:34.965Z,17.90
2022-10-06T10:47:11.885Z,17.90
2022-10-06T10:49:40.015Z,18.00
2022-10-06T10:52:11.716Z,18.10
2022-10-06T10:54:45.686Z,18.20
2022-10-06T10:57:16.347Z,18.30
2022-10-06T10:59:52.476Z,18.30
2022-10-06T11:02:21.711Z,18.40
2022-10-06T11:04:52.151Z,18.40
2022-10-06T11:07:23.390Z,18.40
2022-10-06T11:09:57.219Z,18.40
2022-10-06T11:12:37.478Z,18.40
2022-10-06T11:15:10.682Z,18.40
2022-10-06T11:17:47.134Z,18.50
2022-10-06T11:20:42.712Z,18.50
2022-10-06T11:23:36.566Z,18.50
2022-10-06T11:26:15.978Z,18.50
2022-10-06T11:28:46.071Z,18.50
2022-10-06T11:31:23.808Z,18.40
2022-10-06T11:33:54.301Z,18.30
2022-10-06T11:36:34.550Z,18.20
2022-10-06T11:39:05.643Z,18.20
2022-10-06T11:41:38.288Z,18.30
2022-10-06T11:44:11.827Z,18.30
2022-10-06T11:46:45.094Z,18.40
2022-10-06T11:49:49.446Z,18.50
2022-10-06T11:52:43.032Z,18.60
2022-10-06T11:55:16.622Z,18.50
2022-10-06T11:58:29.944Z,18.50
2022-10-06T12:00:57.622Z,18.60
2022-10-06T12:04:06.298Z,18.60
2022-10-06T12:07:03.644Z,18.60
2022-10-06T12:09:53.315Z,18.70
2022-10-06T12:13:01.788Z,18.80
2022-10-06T12:19:19.518Z,18.80
2022-10-06T12:22:00.528Z,18.80
2022-10-06T12:24:41.263Z,18.80
2022-10-06T12:27:40.696Z,18.90
2022-10-06T12:30:21.125Z,18.90
2022-10-06T12:32:54.939Z,18.70
2022-10-06T12:35:36.444Z,18.70
2022-10-06T12:38:06.164Z,18.80
2022-10-06T12:40:55.441Z,18.80
2022-10-06T12:44:00.744Z,18.90
2022-10-06T12:46:44.718Z,19.00
2022-10-06T12:49:36.850Z,19.10
2022-10-06T12:52:44.813Z,19.20
2022-10-06T12:55:29.836Z,19.20
2022-10-06T12:57:57.902Z,19.10
2022-10-06T13:00:34.601Z,19.00
2022-10-06T13:03:06.251Z,19.10
2022-10-06T13:05:36.564Z,19.10
2022-10-06T13:08:06.153Z,19.10
2022-10-06T13:10:34.534Z,19.20
2022-10-06T13:13:02.657Z,19.30
2022-10-06T13:18:11.504Z,19.40
2022-10-06T13:20:42.321Z,19.30
2022-10-06T13:23:23.956Z,19.40
2022-10-06T13:25:55.804Z,19.40
2022-10-06T13:28:29.836Z,19.30
2022-10-06T13:30:59.390Z,19.30
2022-10-06T13:33:31.230Z,19.20
2022-10-06T13:36:00.736Z,19.10
2022-10-06T13:38:31.863Z,19.00
2022-10-06T13:41:22.673Z,18.90
2022-10-06T13:43:53.324Z,18.80
2022-10-06T13:46:23.561Z,18.70
2022-10-06T13:48:54.300Z,18.70
2022-10-06T13:51:25.686Z,18.70
2022-10-06T13:53:54.520Z,18.60
2022-10-06T13:56:43.605Z,18.60
2022-10-06T13:59:35.783Z,18.40
2022-10-06T14:02:22.923Z,18.40
2022-10-06T14:05:27.467Z,18.30
2022-10-06T14:07:59.520Z,18.30
2022-10-06T14:10:31.590Z,18.20
2022-10-06T14:13:01.363Z,18.20
2022-10-06T14:15:32.028Z,18.10
2022-10-06T14:18:01.718Z,18.00
2022-10-06T14:20:42.326Z,18.00
2022-10-06T14:23:51.966Z,17.90
2022-10-06T14:26:21.361Z,17.90
2022-10-06T14:28:51.550Z,17.90
2022-10-06T14:31:19.982Z,17.80
2022-10-06T14:33:48.471Z,17.80
2022-10-06T14:36:19.345Z,17.80
2022-10-06T14:38:49.317Z,17.70
2022-10-06T14:41:20.276Z,17.70
2022-10-06T14:43:48.999Z,17.70
2022-10-06T14:46:17.145Z,17.60
2022-10-06T14:48:45.417Z,17.60
2022-10-06T14:51:13.543Z,17.50
2022-10-06T14:53:42.987Z,17.50
2022-10-06T14:56:14.223Z,17.40
2022-10-06T14:58:45.699Z,17.40
2022-10-06T15:01:16.675Z,17.30
2022-10-06T15:03:49.065Z,17.20
2022-10-06T15:06:35.250Z,17.10
2022-10-06T15:09:03.409Z,17.10
2022-10-06T15:11:31.549Z,17.00
2022-10-06T15:14:01.300Z,16.90
2022-10-06T15:16:30.183Z,16.90
2022-10-06T15:18:59.636Z,16.90
2022-10-06T15:21:28.288Z,16.80
2022-10-06T15:23:56.608Z,16.80
2022-10-06T15:26:42.347Z,16.80
2022-10-06T15:29:11.855Z,16.70
2022-10-06T15:31:41.052Z,16.60
2022-10-06T15:34:10.664Z,16.50
2022-10-06T15:36:39.778Z,16.50
2022-10-06T15:39:09.413Z,16.50
2022-10-06T15:41:37.954Z,16.50
2022-10-06T15:44:06.516Z,16.50
2022-10-06T15:46:37.565Z,16.40
2022-10-06T15:49:06.912Z,16.40
2022-10-06T15:51:37.220Z,16.40
2022-10-06T15:54:05.904Z,16.30
2022-10-06T15:56:34.145Z,16.20
2022-10-06T15:59:02.482Z,16.10
2022-10-06T16:01:43.097Z,16.10
2022-10-06T16:04:27.290Z,16.00
2022-10-06T16:06:56.481Z,15.90
2022-10-06T16:09:26.301Z,15.90
2022-10-06T16:11:54.864Z,15.80
2022-10-06T16:14:23.350Z,15.70
2022-10-06T16:16:53.253Z,15.60
2022-10-06T16:19:21.560Z,15.50
2022-10-06T16:21:50.237Z,15.40
2022-10-06T16:24:18.775Z,15.30
2022-10-06T16:26:47.214Z,15.20
2022-10-06T16:29:15.487Z,15.20
2022-10-06T16:31:43.791Z,15.10
2022-10-06T16:34:13.540Z,15.00
2022-10-06T16:36:42.127Z,14.90
2022-10-06T16:39:14.706Z,14.80
2022-10-06T16:41:43.062Z,14.70
2022-10-06T16:44:11.382Z,14.60
2022-10-06T16:46:39.724Z,14.50
2022-10-06T16:49:09.172Z,14.40
2022-10-06T16:51:39.668Z,14.30
2022-10-06T16:54:08.915Z,14.30
2022-10-06T16:56:39.528Z,14.20
2022-10-06T16:59:12.992Z,14.10
2022-10-06T17:01:41.378Z,14.00
2022-10-06T17:04:11.184Z,13.90
2022-10-06T17:06:42.876Z,13.80
2022-10-06T17:09:14.392Z,13.70
2022-10-06T17:11:43.401Z,13.60
2022-10-06T17:14:11.727Z,13.60
2022-10-06T17:16:42.536Z,13.50
2022-10-06T17:19:11.388Z,13.40
2022-10-06T17:21:46.359Z,13.40
2022-10-06T17:24:17.746Z,13.30
2022-10-06T17:26:47.750Z,13.20
2022-10-06T17:29:18.236Z,13.20
2022-10-06T17:31:46.639Z,13.10
2022-10-06T17:34:20.341Z,13.10
2022-10-06T17:36:51.861Z,13.00
2022-10-06T17:39:22.088Z,12.90
2022-10-06T17:41:51.431Z,12.90
2022-10-06T17:44:23.171Z,12.80
2022-10-06T17:46:53.924Z,12.80
2022-10-06T17:49:23.788Z,12.70
2022-10-06T17:51:55.443Z,12.70
2022-10-06T17:54:25.160Z,12.60
2022-10-06T17:56:54.945Z,12.60
2022-10-06T17:59:24.689Z,12.60
2022-10-06T18:01:53.189Z,12.60
2022-10-06T18:04:21.575Z,12.50
2022-10-06T18:06:50.596Z,12.50
2022-10-06T18:09:20.424Z,12.40
2022-10-06T18:11:48.491Z,12.40
2022-10-06T18:14:18.241Z,12.30
2022-10-06T18:16:50.871Z,12.30
2022-10-06T18:19:26.323Z,12.30
2022-10-06T18:21:56.629Z,12.20
2022-10-06T18:24:27.700Z,12.20
2022-10-06T18:26:56.985Z,12.10
2022-10-06T18:29:28.045Z,12.10
2022-10-06T18:32:09.134Z,12.10
2022-10-06T18:37:31.955Z,12.00
2022-10-06T18:40:02.428Z,12.00
2022-10-06T18:42:30.587Z,12.00
2022-10-06T18:45:16.164Z,11.90
2022-10-06T18:48:01.860Z,11.90
2022-10-06T18:50:31.048Z,11.90
2022-10-06T18:52:59.297Z,11.80
2022-10-06T18:55:29.831Z,11.80
2022-10-06T18:57:58.767Z,11.80
2022-10-06T19:00:27.350Z,11.70
2022-10-06T19:02:56.920Z,11.70
2022-10-06T19:05:25.460Z,11.70
2022-10-06T19:07:54.693Z,11.60
2022-10-06T19:10:22.973Z,11.60
2022-10-06T19:12:52.568Z,11.50
2022-10-06T19:15:21.518Z,11.50
2022-10-06T19:17:50.108Z,11.50
2022-10-06T19:20:19.208Z,11.40
2022-10-06T19:22:48.019Z,11.40
2022-10-06T19:25:18.806Z,11.40
2022-10-06T19:27:47.469Z,11.30
2022-10-06T19:30:17.112Z,11.30
2022-10-06T19:32:45.555Z,11.30
2022-10-06T19:35:13.837Z,11.30
2022-10-06T19:37:42.244Z,11.30
2022-10-06T19:40:11.434Z,11.20
2022-10-06T19:42:48.164Z,11.20
2022-10-06T19:45:19.679Z,11.20
2022-10-06T19:47:48.120Z,11.20
2022-10-06T19:50:17.620Z,11.20
2022-10-06T19:52:46.412Z,11.20
2022-10-06T19:55:14.884Z,11.10
2022-10-06T19:57:43.606Z,11.10
2022-10-06T20:00:14.012Z,11.10
2022-10-06T20:02:44.939Z,11.00
2022-10-06T20:05:14.054Z,11.00
2022-10-06T20:07:42.929Z,11.00
2022-10-06T20:10:11.876Z,11.00
2022-10-06T20:12:41.397Z,10.90
2022-10-06T20:15:11.066Z,10.90
2022-10-06T20:17:42.347Z,10.90
2022-10-06T20:20:13.876Z,10.90
2022-10-06T20:22:42.838Z,10.90
2022-10-06T20:25:11.297Z,10.90
2022-10-06T20:27:39.668Z,10.90
2022-10-06T20:30:09.695Z,10.80
2022-10-06T20:32:38.076Z,10.80
2022-10-06T20:35:07.079Z,10.80
2022-10-06T20:37:38.426Z,10.70
2022-10-06T20:40:25.527Z,10.70
2022-10-06T20:42:54.856Z,10.70
2022-10-06T20:45:23.541Z,10.60
2022-10-06T20:47:52.107Z,10.60
2022-10-06T20:50:20.587Z,10.60
2022-10-06T20:52:50.495Z,10.60
2022-10-06T20:55:18.766Z,10.60
2022-10-06T20:57:49.057Z,10.50
2022-10-06T21:00:18.088Z,10.50
2022-10-06T21:02:46.665Z,10.50
2022-10-06T21:05:15.087Z,10.40
2022-10-06T21:07:43.981Z,10.40
2022-10-06T21:10:13.647Z,10.40
2022-10-06T21:12:46.235Z,10.30
2022-10-06T21:15:14.811Z,10.30
2022-10-06T21:17:47.818Z,10.30
2022-10-06T21:20:16.579Z,10.30
2022-10-06T21:22:45.049Z,10.20
2022-10-06T21:25:15.718Z,10.20
2022-10-06T21:27:45.634Z,10.20
2022-10-06T21:30:14.902Z,10.10
2022-10-06T21:32:43.723Z,10.10
2022-10-06T21:35:11.976Z,10.00
2022-10-06T21:37:40.192Z,10.00
2022-10-06T21:40:09.216Z,9.90
2022-10-06T21:42:38.687Z,9.90
2022-10-06T21:45:08.032Z,9.80
2022-10-06T21:47:36.223Z,9.80
2022-10-06T21:50:04.462Z,9.70
2022-10-06T21:52:32.549Z,9.70
2022-10-06T21:55:00.727Z,9.60
2022-10-06T21:57:28.840Z,9.60
2022-10-06T21:59:58.265Z,9.60
2022-10-06T22:02:26.457Z,9.60
2022-10-06T22:04:54.611Z,9.60
2022-10-06T22:07:22.737Z,9.50
2022-10-06T22:09:50.828Z,9.50
2022-10-06T22:12:18.931Z,9.50
2022-10-06T22:14:47.012Z,9.50
2022-10-06T22:17:16.455Z,9.50
2022-10-06T22:19:44.584Z,9.40
2022-10-06T22:22:12.667Z,9.40
2022-10-06T22:24:40.879Z,9.30
2022-10-06T22:27:08.975Z,9.30
2022-10-06T22:29:37.076Z,9.30
2022-10-06T22:32:05.195Z,9.20
2022-10-06T22:34:34.707Z,9.20
2022-10-06T22:37:02.924Z,9.10
2022-10-06T22:39:31.036Z,9.10
2022-10-06T22:41:59.139Z,9.00
2022-10-06T22:44:27.403Z,9.00
2022-10-06T22:46:55.602Z,9.00
2022-10-06T22:49:23.772Z,8.90
2022-10-06T22:51:53.228Z,8.90
2022-10-06T22:54:22.762Z,8.80
2022-10-06T22:56:50.967Z,8.80
2022-10-06T22:59:19.096Z,8.80
2022-10-06T23:01:47.232Z,8.70
2022-10-06T23:04:15.600Z,8.70
2022-10-06T23:06:43.663Z,8.60
2022-10-06T23:09:14.096Z,8.60
2022-10-06T23:11:42.205Z,8.50
2022-10-06T23:14:10.325Z,8.50
2022-10-06T23:16:38.425Z,8.50
2022-10-06T23:19:06.827Z,8.40
2022-10-06T23:21:36.939Z,8.40
2022-10-06T23:24:05.383Z,8.30
2022-10-06T23:26:34.824Z,8.30
2022-10-06T23:29:04.215Z,8.30
2022-10-06T23:31:32.456Z,8.30
2022-10-06T23:34:00.576Z,8.20
2022-10-06T23:36:29.371Z,8.20
2022-10-06T23:38:57.511Z,8.10
2022-10-06T23:41:25.651Z,8.10
2022-10-06T23:43:55.174Z,8.10
2022-10-06T23:46:23.348Z,8.10
2022-10-06T23:48:51.412Z,8.10
2022-10-06T23:51:19.551Z,8.00
2022-10-06T23:53:47.878Z,8.00
2022-10-06T23:56:15.974Z,8.00
2022-10-06T23:58:44.051Z,7.90
